createdAt,value
2022-12-23T00:00:29.338Z,10.58
2022-12-23T00:02:56.528Z,10.60
2022-12-23T00:05:23.614Z,10.58
2022-12-23T00:07:50.397Z,10.56
2022-12-23T00:10:17.296Z,10.57
2022-12-23T00:13:02.491Z,10.55
2022-12-23T00:15:29.323Z,10.55
2022-12-23T00:17:56.175Z,10.58
2022-12-23T00:20:23.596Z,10.45
2022-12-23T00:23:05.320Z,10.61
2022-12-23T00:25:46.047Z,10.61
2022-12-23T00:28:20.222Z,10.67
2022-12-23T00:30:48.881Z,10.67
2022-12-23T00:33:18.306Z,10.71
2022-12-23T00:35:46.317Z,10.82
2022-12-23T00:38:13.550Z,10.83
2022-12-23T00:40:58.697Z,10.85
2022-12-23T00:43:25.549Z,10.99
2022-12-23T00:45:52.560Z,10.98
2022-12-23T00:48:37.798Z,11.07
2022-12-23T00:51:04.753Z,11.18
2022-12-23T00:53:31.557Z,11.19
2022-12-23T00:55:58.605Z,11.01
2022-12-23T00:58:26.515Z,11.13
2022-12-23T01:01:12.298Z,11.13
2022-12-23T01:03:57.640Z,11.08
2022-12-23T01:06:24.612Z,11.06
2022-12-23T01:08:51.540Z,11.07
2022-12-23T01:11:18.565Z,11.01
2022-12-23T01:13:45.397Z,11.00
2022-12-23T01:16:17.219Z,10.93
2022-12-23T01:18:45.250Z,10.89
2022-12-23T01:21:12.513Z,10.94
2022-12-23T01:23:39.562Z,10.76
2022-12-23T01:26:08.102Z,10.89
2022-12-23T01:28:36.095Z,10.96
2022-12-23T01:31:05.641Z,10.98
2022-12-23T01:33:33.548Z,10.91
2022-12-23T01:36:07.429Z,10.79
2022-12-23T01:38:34.996Z,11.04
2022-12-23T01:41:01.814Z,10.99
2022-12-23T01:43:50.690Z,11.04
2022-12-23T01:46:18.911Z,10.93
2022-12-23T01:48:51.208Z,11.05
2022-12-23T01:51:28.902Z,11.04
2022-12-23T01:54:01.187Z,11.04
2022-12-23T01:56:34.912Z,10.91
2022-12-23T01:59:10.493Z,10.92
2022-12-23T02:01:56.374Z,10.96
2022-12-23T02:04:25.581Z,11.02
2022-12-23T02:07:11.292Z,11.04
2022-12-23T02:09:40.606Z,10.95
2022-12-23T02:12:37.124Z,11.09
2022-12-23T02:15:37.585Z,11.03
2022-12-23T02:18:07.403Z,10.92
2022-12-23T02:21:36.547Z,10.98
2022-12-23T02:24:33.540Z,10.98
2022-12-23T02:27:09.645Z,10.99
2022-12-23T02:30:19.318Z,10.96
2022-12-23T02:33:12.892Z,11.03
2022-12-23T02:36:23.416Z,10.97
2022-12-23T02:39:07.952Z,10.95
2022-12-23T02:42:31.300Z,10.92
2022-12-23T02:45:04.003Z,10.94
2022-12-23T02:47:42.868Z,10.91
2022-12-23T02:50:18.669Z,11.03
2022-12-23T02:52:49.581Z,11.06
2022-12-23T02:55:25.691Z,11.15
2022-12-23T02:57:55.162Z,11.14
2022-12-23T03:00:22.771Z,11.07
2022-12-23T03:02:50.240Z,11.33
2022-12-23T03:05:39.262Z,11.38
2022-12-23T03:08:31.922Z,11.28
2022-12-23T03:11:09.756Z,11.55
2022-12-23T03:13:48.316Z,11.51
2022-12-23T03:16:28.397Z,11.64
2022-12-23T03:19:35.123Z,11.49
2022-12-23T03:22:34.405Z,11.51
2022-12-23T03:25:27.372Z,11.91
2022-12-23T03:28:11.408Z,11.99
2022-12-23T03:30:43.419Z,11.80
2022-12-23T03:33:24.439Z,11.97
2022-12-23T03:36:02.336Z,11.98
2022-12-23T03:38:32.812Z,11.86
2022-12-23T03:41:06.762Z,11.96
2022-12-23T03:43:44.944Z,11.90
2022-12-23T03:46:23.525Z,12.12
2022-12-23T03:48:59.007Z,12.07
2022-12-23T03:51:36.393Z,12.07
2022-12-23T03:54:16.562Z,12.17
2022-12-23T03:56:55.026Z,12.40
2022-12-23T03:59:28.812Z,12.42
2022-12-23T04:02:44.660Z,12.09
2022-12-23T04:05:40.438Z,12.15
2022-12-23T04:08:27.408Z,12.45
2022-12-23T04:10:54.587Z,12.19
2022-12-23T04:13:21.370Z,12.36
2022-12-23T04:15:48.343Z,12.40
2022-12-23T04:18:16.370Z,12.25
2022-12-23T04:20:43.236Z,12.46
2022-12-23T04:23:10.426Z,12.51
2022-12-23T04:25:37.244Z,12.30
2022-12-23T04:28:04.283Z,12.22
2022-12-23T04:30:34.445Z,12.43
2022-12-23T04:33:02.189Z,12.49
2022-12-23T04:35:29.577Z,12.45
2022-12-23T04:37:56.424Z,12.45
2022-12-23T04:40:23.258Z,12.19
2022-12-23T04:42:50.099Z,12.47
2022-12-23T04:45:17.044Z,12.53
2022-12-23T04:47:43.855Z,12.48
2022-12-23T04:50:14.959Z,12.71
2022-12-23T04:52:43.114Z,12.44
2022-12-23T04:55:10.801Z,12.32
2022-12-23T04:57:37.666Z,12.34
2022-12-23T05:00:05.824Z,12.56
2022-12-23T05:02:32.743Z,12.50
2022-12-23T05:04:59.668Z,12.13
2022-12-23T05:07:26.484Z,12.54
2022-12-23T05:09:53.385Z,12.54
2022-12-23T05:12:20.187Z,12.31
2022-12-23T05:14:47.253Z,12.38
2022-12-23T05:17:14.078Z,12.51
2022-12-23T05:19:40.856Z,12.34
2022-12-23T05:22:07.650Z,12.42
2022-12-23T05:24:34.428Z,12.28
2022-12-23T05:27:01.256Z,12.18
2022-12-23T05:29:28.513Z,12.53
2022-12-23T05:31:55.424Z,12.45
2022-12-23T05:34:22.327Z,12.53
2022-12-23T05:36:49.239Z,12.41
2022-12-23T05:39:16.053Z,12.32
2022-12-23T05:41:43.029Z,12.64
2022-12-23T05:44:10.022Z,12.42
2022-12-23T05:46:36.968Z,12.62
2022-12-23T05:49:03.951Z,12.56
2022-12-23T05:51:30.777Z,12.58
2022-12-23T05:53:57.604Z,12.73
2022-12-23T05:56:24.457Z,12.53
2022-12-23T05:58:51.283Z,12.52
2022-12-23T06:01:18.740Z,12.55
2022-12-23T06:03:45.751Z,12.70
2022-12-23T06:06:12.706Z,12.42
2022-12-23T06:08:39.557Z,12.41
2022-12-23T06:11:06.717Z,12.55
2022-12-23T06:13:33.575Z,12.48
2022-12-23T06:16:00.421Z,12.46
2022-12-23T06:18:27.315Z,12.45
2022-12-23T06:20:54.194Z,12.61
2022-12-23T06:23:21.061Z,12.45
2022-12-23T06:25:47.871Z,12.54
2022-12-23T06:28:14.731Z,12.56
2022-12-23T06:30:41.560Z,12.53
2022-12-23T06:33:08.403Z,12.52
2022-12-23T06:35:35.194Z,12.50
2022-12-23T06:38:02.045Z,12.49
2022-12-23T06:40:29.633Z,12.52
2022-12-23T06:42:56.610Z,12.69
2022-12-23T06:45:23.458Z,12.60
2022-12-23T06:47:50.337Z,12.57
2022-12-23T06:50:17.215Z,12.53
2022-12-23T06:52:45.548Z,12.56
2022-12-23T06:55:12.515Z,12.52
2022-12-23T06:57:39.371Z,12.59
2022-12-23T07:00:07.716Z,12.66
2022-12-23T07:02:35.080Z,12.62
2022-12-23T07:05:02.440Z,12.56
2022-12-23T07:07:29.658Z,12.67
2022-12-23T07:09:56.486Z,12.57
2022-12-23T07:12:23.286Z,12.68
2022-12-23T07:14:50.128Z,12.67
2022-12-23T07:17:17.293Z,12.66
2022-12-23T07:19:44.181Z,12.65
2022-12-23T07:22:11.046Z,12.83
2022-12-23T07:24:38.072Z,12.57
2022-12-23T07:27:05.296Z,12.64
2022-12-23T07:29:32.119Z,12.70
2022-12-23T07:31:59.113Z,12.85
2022-12-23T07:34:25.993Z,12.88
2022-12-23T07:36:52.841Z,12.91
2022-12-23T07:39:19.893Z,12.96
2022-12-23T07:41:46.736Z,13.00
2022-12-23T07:44:13.916Z,13.03
2022-12-23T07:46:40.748Z,13.09
2022-12-23T07:49:08.046Z,12.97
2022-12-23T07:51:34.850Z,13.02
2022-12-23T07:54:01.730Z,13.03
2022-12-23T07:56:28.636Z,13.04
2022-12-23T07:58:55.527Z,13.09
2022-12-23T08:01:22.678Z,13.08
2022-12-23T08:03:49.620Z,13.23
2022-12-23T08:06:17.013Z,13.34
2022-12-23T08:08:46.329Z,13.46
2022-12-23T08:11:16.725Z,13.49
2022-12-23T08:13:45.638Z,13.60
2022-12-23T08:16:12.946Z,13.65
2022-12-23T08:18:41.984Z,13.69
2022-12-23T08:21:17.892Z,13.74
2022-12-23T08:23:47.191Z,13.64
2022-12-23T08:26:23.167Z,13.62
2022-12-23T08:28:53.491Z,13.61
2022-12-23T08:31:28.414Z,13.86
2022-12-23T08:33:57.966Z,13.94
2022-12-23T08:36:29.441Z,13.98
2022-12-23T08:38:59.017Z,14.67
2022-12-23T08:41:36.566Z,15.29
2022-12-23T08:44:04.126Z,15.93
2022-12-23T08:46:31.004Z,16.24
2022-12-23T08:48:59.111Z,15.85
2022-12-23T08:51:28.287Z,15.23
2022-12-23T08:54:01.106Z,15.18
2022-12-23T08:56:33.076Z,14.44
2022-12-23T08:59:01.150Z,14.40
2022-12-23T09:01:31.411Z,14.09
2022-12-23T09:03:58.975Z,14.17
2022-12-23T09:06:30.441Z,14.24
2022-12-23T09:08:58.590Z,14.40
2022-12-23T09:11:29.728Z,14.04
2022-12-23T09:13:59.515Z,14.25
2022-12-23T09:16:27.450Z,14.16
2022-12-23T09:18:54.361Z,14.48
2022-12-23T09:21:23.467Z,14.63
2022-12-23T09:23:51.158Z,14.65
2022-12-23T09:26:24.800Z,14.62
2022-12-23T09:28:52.314Z,14.64
2022-12-23T09:31:19.979Z,14.52
2022-12-23T09:33:49.443Z,14.55
2022-12-23T09:36:17.497Z,14.71
2022-12-23T09:38:44.951Z,14.75
2022-12-23T09:41:53.875Z,14.88
2022-12-23T09:44:47.405Z,15.06
2022-12-23T09:47:22.311Z,15.22
2022-12-23T09:49:57.239Z,15.23
2022-12-23T09:52:48.200Z,15.07
2022-12-23T09:55:16.498Z,14.98
2022-12-23T09:58:01.113Z,15.57
2022-12-23T10:00:41.632Z,15.56
2022-12-23T10:03:22.471Z,15.80
2022-12-23T10:06:11.588Z,15.79
2022-12-23T10:08:43.225Z,15.44
2022-12-23T10:11:27.044Z,15.43
2022-12-23T10:14:05.128Z,15.45
2022-12-23T10:16:50.703Z,15.68
2022-12-23T10:19:48.506Z,15.72
2022-12-23T10:22:41.367Z,15.70
2022-12-23T10:25:23.065Z,15.56
2022-12-23T10:27:50.101Z,15.47
2022-12-23T10:34:05.786Z,15.45
2022-12-23T10:37:08.236Z,15.47
2022-12-23T10:39:56.678Z,15.43
2022-12-23T10:43:15.260Z,15.29
2022-12-23T10:45:54.357Z,15.33
2022-12-23T10:48:38.307Z,14.83
2022-12-23T10:51:22.074Z,15.08
2022-12-23T10:53:56.944Z,15.11
2022-12-23T10:56:23.849Z,14.84
2022-12-23T10:58:55.357Z,14.87
2022-12-23T11:01:27.118Z,15.10
2022-12-23T11:04:07.904Z,14.89
2022-12-23T11:06:40.451Z,15.15
2022-12-23T11:09:23.019Z,15.14
2022-12-23T11:12:06.505Z,15.00
2022-12-23T11:14:44.082Z,15.08
2022-12-23T11:17:24.889Z,15.04
2022-12-23T11:20:10.469Z,15.07
2022-12-23T11:23:02.241Z,15.13
2022-12-23T11:25:43.574Z,15.18
2022-12-23T11:28:10.320Z,15.08
2022-12-23T11:30:55.861Z,15.02
2022-12-23T11:33:37.707Z,14.97
2022-12-23T11:36:13.667Z,14.90
2022-12-23T11:38:50.833Z,14.75
2022-12-23T11:41:28.457Z,14.66
2022-12-23T11:44:26.492Z,14.77
2022-12-23T11:46:53.413Z,14.80
2022-12-23T11:49:31.451Z,14.37
2022-12-23T11:52:11.766Z,14.69
2022-12-23T11:54:39.487Z,14.56
2022-12-23T11:57:15.826Z,14.33
2022-12-23T11:59:48.865Z,14.53
2022-12-23T12:02:39.880Z,14.52
2022-12-23T12:05:16.713Z,14.43
2022-12-23T12:07:45.287Z,14.80
2022-12-23T12:10:28.630Z,14.58
2022-12-23T12:13:05.484Z,14.68
2022-12-23T12:15:41.141Z,14.76
2022-12-23T12:18:15.232Z,14.55
2022-12-23T12:20:54.006Z,14.77
2022-12-23T12:23:40.730Z,14.79
2022-12-23T12:26:31.818Z,14.85
2022-12-23T12:29:37.717Z,14.97
2022-12-23T12:32:12.322Z,14.99
2022-12-23T12:35:22.169Z,15.03
2022-12-23T12:37:57.092Z,15.01
2022-12-23T12:40:39.307Z,15.06
2022-12-23T12:43:34.821Z,14.99
2022-12-23T12:46:43.575Z,14.94
2022-12-23T12:49:49.967Z,14.96
2022-12-23T12:52:22.296Z,14.97
2022-12-23T12:54:55.766Z,15.01
2022-12-23T12:57:25.081Z,15.02
2022-12-23T13:00:03.583Z,14.94
2022-12-23T13:03:09.112Z,14.98
2022-12-23T13:06:13.522Z,15.04
2022-12-23T13:09:17.481Z,15.05
2022-12-23T13:11:58.886Z,15.08
2022-12-23T13:15:12.334Z,15.05
2022-12-23T13:18:28.307Z,15.12
2022-12-23T13:21:13.358Z,15.08
2022-12-23T13:24:03.940Z,15.04
2022-12-23T13:26:49.318Z,14.75
2022-12-23T13:30:01.121Z,14.64
2022-12-23T13:32:59.768Z,14.64
2022-12-23T13:35:46.557Z,14.48
2022-12-23T13:39:04.572Z,14.68
2022-12-23T13:41:44.103Z,14.75
2022-12-23T13:44:13.540Z,14.74
2022-12-23T13:47:16.067Z,14.48
2022-12-23T13:49:54.552Z,14.46
2022-12-23T13:53:17.547Z,14.29
2022-12-23T13:56:17.235Z,14.43
2022-12-23T13:58:49.142Z,14.36
2022-12-23T14:01:15.884Z,14.28
2022-12-23T14:03:44.966Z,13.98
2022-12-23T14:06:22.386Z,14.34
2022-12-23T14:08:51.039Z,14.34
2022-12-23T14:11:31.963Z,14.34
2022-12-23T14:14:02.018Z,14.15
2022-12-23T14:16:28.810Z,14.14
2022-12-23T14:19:38.949Z,14.05
2022-12-23T14:22:26.762Z,14.32
2022-12-23T14:25:58.047Z,14.07
2022-12-23T14:28:37.133Z,14.19
2022-12-23T14:31:05.703Z,14.06
2022-12-23T14:33:37.934Z,14.25
2022-12-23T14:36:25.993Z,14.07
2022-12-23T14:39:11.492Z,14.20
2022-12-23T14:41:39.495Z,13.88
2022-12-23T14:44:38.188Z,14.21
2022-12-23T14:47:32.252Z,14.12
2022-12-23T14:50:42.552Z,14.05
2022-12-23T14:53:30.260Z,14.06
2022-12-23T14:56:15.120Z,14.17
2022-12-23T14:59:07.880Z,14.03
2022-12-23T15:01:48.363Z,14.17
2022-12-23T15:04:29.253Z,14.07
2022-12-23T15:07:13.699Z,13.88
2022-12-23T15:10:01.156Z,14.23
2022-12-23T15:12:32.910Z,14.13
2022-12-23T15:15:13.890Z,13.91
2022-12-23T15:17:40.910Z,14.02
2022-12-23T15:20:15.576Z,14.01
2022-12-23T15:22:44.791Z,14.09
2022-12-23T15:25:27.269Z,14.11
2022-12-23T15:28:01.427Z,14.03
2022-12-23T15:30:34.074Z,14.06
2022-12-23T15:33:16.062Z,14.12
2022-12-23T15:35:53.583Z,14.06
2022-12-23T15:38:22.377Z,13.93
2022-12-23T15:41:02.996Z,14.02
2022-12-23T15:43:30.935Z,13.88
2022-12-23T15:46:26.804Z,13.92
2022-12-23T15:48:56.710Z,13.96
2022-12-23T15:52:05.737Z,14.02
2022-12-23T15:54:52.604Z,14.07
2022-12-23T15:57:22.714Z,13.98
2022-12-23T15:59:50.180Z,13.97
2022-12-23T16:02:59.780Z,14.09
2022-12-23T16:05:34.903Z,14.11
2022-12-23T16:08:31.539Z,13.85
2022-12-23T16:11:18.984Z,14.00
2022-12-23T16:14:02.074Z,14.02
2022-12-23T16:16:40.973Z,14.01
2022-12-23T16:19:39.956Z,13.91
2022-12-23T16:22:22.474Z,14.01
2022-12-23T16:24:59.124Z,14.07
2022-12-23T16:27:48.122Z,14.08
2022-12-23T16:30:19.032Z,14.07
2022-12-23T16:32:55.790Z,13.86
2022-12-23T16:35:33.695Z,13.88
2022-12-23T16:38:22.605Z,13.93
2022-12-23T16:40:53.626Z,14.11
2022-12-23T16:43:22.322Z,14.08
2022-12-23T16:45:57.270Z,14.15
2022-12-23T16:48:33.164Z,14.09
2022-12-23T16:51:02.111Z,14.02
2022-12-23T16:53:29.023Z,14.13
2022-12-23T16:56:00.583Z,14.03
2022-12-23T16:58:28.393Z,13.97
2022-12-23T17:00:55.965Z,13.72
2022-12-23T17:03:22.857Z,13.94
2022-12-23T17:05:49.732Z,13.70
2022-12-23T17:08:16.677Z,13.98
2022-12-23T17:10:44.927Z,13.81
2022-12-23T17:13:15.153Z,13.58
2022-12-23T17:15:42.012Z,13.92
2022-12-23T17:18:17.360Z,13.85
2022-12-23T17:20:46.565Z,13.85
2022-12-23T17:23:31.101Z,13.93
2022-12-23T17:25:58.850Z,13.88
2022-12-23T17:28:32.350Z,14.06
2022-12-23T17:31:00.219Z,14.11
2022-12-23T17:33:31.071Z,14.10
2022-12-23T17:35:58.345Z,14.09
2022-12-23T17:38:25.391Z,14.31
2022-12-23T17:40:52.250Z,14.20
2022-12-23T17:43:19.515Z,14.24
2022-12-23T17:45:47.162Z,14.37
2022-12-23T17:48:20.847Z,14.34
2022-12-23T17:50:50.246Z,14.14
2022-12-23T17:53:19.487Z,14.11
2022-12-23T17:55:46.701Z,14.39
2022-12-23T17:58:14.352Z,14.29
2022-12-23T18:00:41.756Z,14.54
2022-12-23T18:03:23.118Z,14.52
2022-12-23T18:05:52.965Z,14.47
2022-12-23T18:08:21.199Z,14.74
2022-12-23T18:10:48.225Z,14.83
2022-12-23T18:13:20.101Z,14.51
2022-12-23T18:15:47.675Z,14.77
2022-12-23T18:18:27.551Z,14.67
2022-12-23T18:21:00.092Z,14.67
2022-12-23T18:23:32.871Z,14.40
2022-12-23T18:26:00.705Z,14.16
2022-12-23T18:28:27.732Z,14.42
2022-12-23T18:30:58.455Z,14.43
2022-12-23T18:33:28.664Z,14.66
2022-12-23T18:35:55.853Z,14.46
2022-12-23T18:38:23.018Z,14.36
2022-12-23T18:40:53.772Z,14.41
2022-12-23T18:43:24.769Z,14.40
2022-12-23T18:45:53.795Z,14.35
2022-12-23T18:48:21.517Z,14.47
2022-12-23T18:50:48.906Z,14.65
2022-12-23T18:53:24.724Z,14.47
2022-12-23T18:55:53.946Z,14.02
2022-12-23T18:58:22.283Z,14.22
2022-12-23T19:00:50.262Z,14.46
2022-12-23T19:03:25.860Z,14.39
2022-12-23T19:05:54.147Z,14.37
2022-12-23T19:08:26.762Z,14.00
2022-12-23T19:10:55.825Z,14.40
2022-12-23T19:13:23.205Z,14.55
2022-12-23T19:15:50.715Z,14.58
2022-12-23T19:18:20.439Z,14.44
2022-12-23T19:20:48.705Z,14.61
2022-12-23T19:23:16.199Z,14.51
2022-12-23T19:25:52.547Z,14.42
2022-12-23T19:28:21.866Z,14.56
2022-12-23T19:30:49.166Z,14.54
2022-12-23T19:33:16.235Z,14.66
2022-12-23T19:35:43.891Z,14.33
2022-12-23T19:38:12.152Z,14.56
2022-12-23T19:40:39.198Z,14.42
2022-12-23T19:43:06.034Z,14.58
2022-12-23T19:45:33.117Z,14.64
2022-12-23T19:47:59.932Z,14.67
2022-12-23T19:50:27.306Z,14.56
2022-12-23T19:52:56.293Z,14.61
2022-12-23T19:55:23.674Z,14.67
2022-12-23T19:57:51.721Z,14.85
2022-12-23T20:00:18.728Z,14.76
2022-12-23T20:02:45.623Z,14.69
2022-12-23T20:05:12.490Z,14.85
2022-12-23T20:07:39.499Z,14.82
2022-12-23T20:10:07.447Z,14.73
2022-12-23T20:12:34.341Z,14.73
2022-12-23T20:15:01.186Z,14.99
2022-12-23T20:17:28.056Z,14.67
2022-12-23T20:19:54.842Z,14.72
2022-12-23T20:22:21.680Z,14.74
2022-12-23T20:24:48.981Z,14.73
2022-12-23T20:27:16.379Z,14.73
2022-12-23T20:29:44.435Z,14.81
2022-12-23T20:32:11.258Z,14.81
2022-12-23T20:34:40.076Z,14.60
2022-12-23T20:37:07.574Z,14.76
2022-12-23T20:39:34.893Z,14.70
2022-12-23T20:42:01.948Z,14.55
2022-12-23T20:44:37.327Z,14.69
2022-12-23T20:47:06.513Z,14.76
2022-12-23T20:49:33.440Z,14.90
2022-12-23T20:52:00.668Z,14.75
2022-12-23T20:54:33.617Z,14.84
2022-12-23T20:57:02.055Z,14.50
2022-12-23T20:59:29.415Z,14.68
2022-12-23T21:01:58.942Z,14.42
2022-12-23T21:04:26.708Z,14.33
2022-12-23T21:06:53.784Z,14.37
2022-12-23T21:09:20.596Z,14.53
2022-12-23T21:11:48.577Z,14.32
2022-12-23T21:14:16.158Z,14.57
2022-12-23T21:16:43.675Z,14.55
2022-12-23T21:19:16.936Z,14.55
2022-12-23T21:21:44.265Z,14.32
2022-12-23T21:24:11.466Z,14.63
2022-12-23T21:26:38.841Z,14.52
2022-12-23T21:29:08.513Z,14.67
2022-12-23T21:31:39.142Z,14.40
2022-12-23T21:34:06.758Z,14.57
2022-12-23T21:36:37.304Z,14.61
2022-12-23T21:39:06.001Z,14.72
2022-12-23T21:41:37.411Z,14.60
2022-12-23T21:44:05.441Z,14.60
2022-12-23T21:46:32.615Z,14.53
2022-12-23T21:49:00.783Z,14.33
2022-12-23T21:51:39.020Z,14.37
2022-12-23T21:54:07.893Z,14.38
2022-12-23T21:56:35.368Z,14.25
2022-12-23T21:59:11.091Z,14.24
2022-12-23T22:01:38.677Z,14.29
2022-12-23T22:04:06.031Z,14.27
2022-12-23T22:06:39.950Z,14.21
2022-12-23T22:09:08.035Z,14.19
2022-12-23T22:11:37.052Z,13.80
2022-12-23T22:14:07.430Z,13.96
2022-12-23T22:16:35.814Z,14.10
2022-12-23T22:19:05.614Z,14.02
2022-12-23T22:21:34.484Z,13.76
2022-12-23T22:24:02.314Z,13.94
2022-12-23T22:26:32.380Z,13.76
2022-12-23T22:29:03.108Z,13.63
2022-12-23T22:31:40.459Z,13.73
2022-12-23T22:34:09.112Z,13.74
2022-12-23T22:36:36.294Z,13.68
2022-12-23T22:39:03.529Z,13.83
2022-12-23T22:41:31.488Z,13.88
2022-12-23T22:43:59.432Z,13.43
2022-12-23T22:46:27.237Z,13.27
2022-12-23T22:48:54.867Z,13.69
2022-12-23T22:51:27.074Z,13.39
2022-12-23T22:53:55.073Z,13.69
2022-12-23T22:56:23.585Z,13.54
2022-12-23T22:58:51.946Z,13.39
2022-12-23T23:01:29.530Z,13.52
2022-12-23T23:03:58.455Z,13.50
2022-12-23T23:06:39.675Z,13.51
2022-12-23T23:09:09.563Z,13.31
2022-12-23T23:11:36.461Z,13.28
2022-12-23T23:14:03.438Z,13.51
2022-12-23T23:16:30.752Z,13.47
2022-12-23T23:18:59.059Z,13.58
2022-12-23T23:21:26.541Z,13.70
2022-12-23T23:23:53.405Z,13.68
2022-12-23T23:26:20.798Z,13.78
2022-12-23T23:28:48.197Z,13.76
2022-12-23T23:34:02.129Z,13.78
2022-12-23T23:36:29.095Z,13.83
2022-12-23T23:38:56.025Z,13.86
2022-12-23T23:41:24.032Z,13.69
2022-12-23T23:43:52.071Z,13.83
2022-12-23T23:46:19.440Z,13.96
2022-12-23T23:48:46.371Z,13.86
2022-12-23T23:51:13.381Z,13.83
2022-12-23T23:53:40.668Z,13.81
2022-12-23T23:56:08.980Z,13.70
2022-12-23T23:58:37.088Z,13.63
